sensor_id;sensor_type;location;lat;lon;timestamp;pressure;altitude;pressure_sealevel;temperature;humidity
54512;BME280;40419;47.438;19.026;2023-03-05T00:01:17;99622.16;;;2.00;87.22
54512;BME280;40419;47.438;19.026;2023-03-05T00:03:47;99606.41;;;2.15;86.58
54512;BME280;40419;47.438;19.026;2023-03-05T00:06:13;99599.41;;;1.95;88.05
54512;BME280;40419;47.438;19.026;2023-03-05T00:08:39;99602.28;;;2.02;87.28
54512;BME280;40419;47.438;19.026;2023-03-05T00:11:08;99607.78;;;2.01;87.55
54512;BME280;40419;47.438;19.026;2023-03-05T00:13:39;99621.13;;;2.01;87.36
54512;BME280;40419;47.438;19.026;2023-03-05T00:16:07;99613.28;;;1.99;87.25
54512;BME280;40419;47.438;19.026;2023-03-05T00:18:36;99603.81;;;1.87;87.91
54512;BME280;40419;47.438;19.026;2023-03-05T00:21:17;99605.66;;;1.86;88.10
54512;BME280;40419;47.438;19.026;2023-03-05T00:23:43;99591.69;;;1.92;87.19
54512;BME280;40419;47.438;19.026;2023-03-05T00:26:11;99600.19;;;1.88;87.80
54512;BME280;40419;47.438;19.026;2023-03-05T00:28:42;99597.81;;;1.85;87.58
54512;BME280;40419;47.438;19.026;2023-03-05T00:31:08;99599.88;;;1.91;87.63
54512;BME280;40419;47.438;19.026;2023-03-05T00:33:34;99601.91;;;1.97;86.82
54512;BME280;40419;47.438;19.026;2023-03-05T00:36:04;99597.50;;;1.88;87.84
54512;BME280;40419;47.438;19.026;2023-03-05T00:38:32;99604.59;;;1.97;87.04
54512;BME280;40419;47.438;19.026;2023-03-05T00:40:58;99594.75;;;1.98;86.55
54512;BME280;40419;47.438;19.026;2023-03-05T00:43:27;99596.59;;;1.97;86.79
54512;BME280;40419;47.438;19.026;2023-03-05T00:45:53;99601.00;;;2.06;85.51
54512;BME280;40419;47.438;19.026;2023-03-05T00:48:18;99596.88;;;1.94;86.18
54512;BME280;40419;47.438;19.026;2023-03-05T00:50:44;99594.50;;;2.09;85.64
54512;BME280;40419;47.438;19.026;2023-03-05T00:53:12;99598.63;;;2.03;86.24
54512;BME280;40419;47.438;19.026;2023-03-05T00:55:38;99603.97;;;2.03;85.78
54512;BME280;40419;47.438;19.026;2023-03-05T00:58:06;99593.91;;;1.97;85.26
54512;BME280;40419;47.438;19.026;2023-03-05T01:00:36;99598.28;;;1.98;86.09
54512;BME280;40419;47.438;19.026;2023-03-05T01:03:02;99597.69;;;2.12;84.83
54512;BME280;40419;47.438;19.026;2023-03-05T01:05:30;99594.34;;;2.10;85.64
54512;BME280;40419;47.438;19.026;2023-03-05T01:07:58;99605.13;;;2.01;86.23
54512;BME280;40419;47.438;19.026;2023-03-05T01:10:26;99605.78;;;2.21;85.64
54512;BME280;40419;47.438;19.026;2023-03-05T01:12:55;99595.34;;;2.09;85.41
54512;BME280;40419;47.438;19.026;2023-03-05T01:15:22;99596.63;;;2.05;85.53
54512;BME280;40419;47.438;19.026;2023-03-05T01:17:50;99599.91;;;2.17;84.94
54512;BME280;40419;47.438;19.026;2023-03-05T01:20:21;99599.09;;;2.17;85.17
54512;BME280;40419;47.438;19.026;2023-03-05T01:22:50;99595.34;;;2.09;85.67
54512;BME280;40419;47.438;19.026;2023-03-05T01:25:18;99603.66;;;2.06;86.23
54512;BME280;40419;47.438;19.026;2023-03-05T01:27:46;99595.13;;;2.21;85.51
54512;BME280;40419;47.438;19.026;2023-03-05T01:30:15;99594.88;;;2.14;86.36
54512;BME280;40419;47.438;19.026;2023-03-05T01:32:43;99600.00;;;2.07;86.52
54512;BME280;40419;47.438;19.026;2023-03-05T01:35:13;99598.09;;;2.18;86.17
54512;BME280;40419;47.438;19.026;2023-03-05T01:37:40;99605.19;;;2.09;86.66
54512;BME280;40419;47.438;19.026;2023-03-05T01:40:06;99600.00;;;2.07;86.94
54512;BME280;40419;47.438;19.026;2023-03-05T01:42:34;99601.69;;;2.08;86.83
54512;BME280;40419;47.438;19.026;2023-03-05T01:47:28;99601.00;;;2.06;86.74
54512;BME280;40419;47.438;19.026;2023-03-05T01:50:06;99590.72;;;1.93;88.05
54512;BME280;40419;47.438;19.026;2023-03-05T01:52:35;99592.63;;;2.01;87.25
54512;BME280;40419;47.438;19.026;2023-03-05T01:55:07;99590.25;;;1.98;86.92
54512;BME280;40419;47.438;19.026;2023-03-05T01:57:37;99587.97;;;1.85;88.86
54512;BME280;40419;47.438;19.026;2023-03-05T02:00:25;99592.31;;;2.04;87.27
54512;BME280;40419;47.438;19.026;2023-03-05T02:03:01;99585.13;;;2.05;87.67
54512;BME280;40419;47.438;19.026;2023-03-05T02:05:35;99593.38;;;1.93;88.68
54512;BME280;40419;47.438;19.026;2023-03-05T02:08:06;99587.91;;;1.95;88.53
54512;BME280;40419;47.438;19.026;2023-03-05T02:10:36;99593.25;;;1.95;88.33
54512;BME280;40419;47.438;19.026;2023-03-05T02:13:08;99591.34;;;1.87;89.07
54512;BME280;40419;47.438;19.026;2023-03-05T02:15:40;99584.38;;;1.94;88.41
54512;BME280;40419;47.438;19.026;2023-03-05T02:18:10;99595.75;;;1.97;88.87
54512;BME280;40419;47.438;19.026;2023-03-05T02:23:11;99588.34;;;2.08;88.18
54512;BME280;40419;47.438;19.026;2023-03-05T02:25:40;99585.88;;;2.15;88.47
54512;BME280;40419;47.438;19.026;2023-03-05T02:30:50;99592.47;;;2.03;88.72
54512;BME280;40419;47.438;19.026;2023-03-05T02:33:16;99592.22;;;1.96;89.36
54512;BME280;40419;47.438;19.026;2023-03-05T02:35:45;99606.59;;;1.95;88.88
54512;BME280;40419;47.438;19.026;2023-03-05T02:38:12;99590.88;;;1.92;88.61
54512;BME280;40419;47.438;19.026;2023-03-05T02:40:38;99593.44;;;2.02;88.78
54512;BME280;40419;47.438;19.026;2023-03-05T02:43:04;99590.94;;;2.00;88.91
54512;BME280;40419;47.438;19.026;2023-03-05T02:45:30;99596.13;;;2.02;88.68
54512;BME280;40419;47.438;19.026;2023-03-05T02:47:57;99592.06;;;1.98;88.80
54512;BME280;40419;47.438;19.026;2023-03-05T02:50:25;99598.63;;;2.03;88.21
54512;BME280;40419;47.438;19.026;2023-03-05T02:52:54;99600.00;;;2.07;88.65
54512;BME280;40419;47.438;19.026;2023-03-05T02:55:21;99589.94;;;2.01;88.72
54512;BME280;40419;47.438;19.026;2023-03-05T02:57:49;99588.88;;;1.94;89.13
54512;BME280;40419;47.438;19.026;2023-03-05T03:00:18;99586.41;;;2.01;88.87
54512;BME280;40419;47.438;19.026;2023-03-05T03:02:46;99591.28;;;2.05;89.21
54512;BME280;40419;47.438;19.026;2023-03-05T03:05:11;99591.75;;;2.19;88.94
54512;BME280;40419;47.438;19.026;2023-03-05T03:07:42;99587.19;;;2.11;89.06
54512;BME280;40419;47.438;19.026;2023-03-05T03:10:10;99581.22;;;2.17;88.62
54512;BME280;40419;47.438;19.026;2023-03-05T03:12:43;99582.00;;;2.09;89.08
54512;BME280;40419;47.438;19.026;2023-03-05T03:15:13;99597.78;;;2.21;88.61
54512;BME280;40419;47.438;19.026;2023-03-05T03:17:44;99582.22;;;2.16;88.54
54512;BME280;40419;47.438;19.026;2023-03-05T03:20:15;99585.69;;;2.08;89.36
54512;BME280;40419;47.438;19.026;2023-03-05T03:22:46;99583.06;;;2.17;88.78
54512;BME280;40419;47.438;19.026;2023-03-05T03:25:17;99578.72;;;1.98;89.60
54512;BME280;40419;47.438;19.026;2023-03-05T03:27:47;99580.25;;;2.00;90.35
54512;BME280;40419;47.438;19.026;2023-03-05T03:30:13;99573.69;;;1.94;90.01
54512;BME280;40419;47.438;19.026;2023-03-05T03:32:41;99573.38;;;1.98;90.07
54512;BME280;40419;47.438;19.026;2023-03-05T03:35:12;99574.00;;;1.91;90.20
54512;BME280;40419;47.438;19.026;2023-03-05T03:37:40;99571.78;;;1.87;91.05
54512;BME280;40419;47.438;19.026;2023-03-05T03:40:11;99567.25;;;2.05;90.02
54512;BME280;40419;47.438;19.026;2023-03-05T03:42:39;99567.06;;;1.99;90.78
54512;BME280;40419;47.438;19.026;2023-03-05T03:45:04;99573.22;;;1.99;90.58
54512;BME280;40419;47.438;19.026;2023-03-05T03:47:32;99570.03;;;1.95;90.86
54512;BME280;40419;47.438;19.026;2023-03-05T03:50:01;99582.31;;;2.06;90.44
54512;BME280;40419;47.438;19.026;2023-03-05T03:52:26;99575.53;;;1.94;90.94
54512;BME280;40419;47.438;19.026;2023-03-05T03:54:52;99576.06;;;1.80;91.57
54512;BME280;40419;47.438;19.026;2023-03-05T03:57:20;99577.84;;;1.89;91.83
54512;BME280;40419;47.438;19.026;2023-03-05T03:59:47;99567.63;;;1.84;91.82
54512;BME280;40419;47.438;19.026;2023-03-05T04:02:14;99573.84;;;1.93;92.11
54512;BME280;40419;47.438;19.026;2023-03-05T04:04:42;99576.81;;;1.90;92.00
54512;BME280;40419;47.438;19.026;2023-03-05T04:07:12;99572.03;;;1.75;92.50
54512;BME280;40419;47.438;19.026;2023-03-05T04:09:42;99565.47;;;1.70;93.12
54512;BME280;40419;47.438;19.026;2023-03-05T04:12:08;99577.69;;;1.72;93.54
54512;BME280;40419;47.438;19.026;2023-03-05T04:14:33;99571.34;;;1.73;93.39
54512;BME280;40419;47.438;19.026;2023-03-05T04:17:01;99566.00;;;1.73;92.45
54512;BME280;40419;47.438;19.026;2023-03-05T04:19:27;99573.13;;;1.65;93.63
54512;BME280;40419;47.438;19.026;2023-03-05T04:21:58;99564.03;;;1.75;93.34
54512;BME280;40419;47.438;19.026;2023-03-05T04:24:24;99565.00;;;1.74;93.71
54512;BME280;40419;47.438;19.026;2023-03-05T04:26:51;99563.03;;;1.76;94.07
54512;BME280;40419;47.438;19.026;2023-03-05T04:29:20;99567.91;;;1.81;93.81
54512;BME280;40419;47.438;19.026;2023-03-05T04:31:51;99572.19;;;1.74;93.89
54512;BME280;40419;47.438;19.026;2023-03-05T04:34:16;99568.50;;;1.75;94.24
54512;BME280;40419;47.438;19.026;2023-03-05T04:36:42;99572.41;;;1.81;93.39
54512;BME280;40419;47.438;19.026;2023-03-05T04:39:07;99571.94;;;1.85;92.89
54512;BME280;40419;47.438;19.026;2023-03-05T04:41:33;99579.34;;;1.91;93.15
54512;BME280;40419;47.438;19.026;2023-03-05T04:43:59;99572.19;;;1.92;92.88
54512;BME280;40419;47.438;19.026;2023-03-05T04:46:24;99577.38;;;1.93;93.46
54512;BME280;40419;47.438;19.026;2023-03-05T04:48:52;99584.69;;;1.91;93.36
54512;BME280;40419;47.438;19.026;2023-03-05T04:51:18;99570.34;;;1.92;93.63
54512;BME280;40419;47.438;19.026;2023-03-05T04:53:49;99568.50;;;1.93;94.14
54512;BME280;40419;47.438;19.026;2023-03-05T04:56:17;99566.28;;;2.06;92.72
54512;BME280;40419;47.438;19.026;2023-03-05T04:58:45;99564.75;;;2.04;93.21
54512;BME280;40419;47.438;19.026;2023-03-05T05:01:10;99558.66;;;2.11;91.97
54512;BME280;40419;47.438;19.026;2023-03-05T05:03:36;99568.63;;;2.09;92.52
54512;BME280;40419;47.438;19.026;2023-03-05T05:06:04;99558.41;;;2.05;92.61
54512;BME280;40419;47.438;19.026;2023-03-05T05:08:32;99565.97;;;2.09;92.50
54512;BME280;40419;47.438;19.026;2023-03-05T05:11:10;99572.53;;;2.15;92.18
54512;BME280;40419;47.438;19.026;2023-03-05T05:13:37;99572.22;;;2.18;91.29
54512;BME280;40419;47.438;19.026;2023-03-05T05:16:08;99560.00;;;2.16;91.82
54512;BME280;40419;47.438;19.026;2023-03-05T05:18:36;99569.84;;;2.15;91.94
54512;BME280;40419;47.438;19.026;2023-03-05T05:21:06;99566.88;;;2.18;92.54
54512;BME280;40419;47.438;19.026;2023-03-05T05:23:34;99576.94;;;2.24;91.55
54512;BME280;40419;47.438;19.026;2023-03-05T05:26:03;99564.72;;;2.22;91.76
54512;BME280;40419;47.438;19.026;2023-03-05T05:28:32;99564.00;;;2.11;92.29
54512;BME280;40419;47.438;19.026;2023-03-05T05:30:58;99575.94;;;2.25;91.35
54512;BME280;40419;47.438;19.026;2023-03-05T05:33:26;99579.91;;;2.21;91.48
54512;BME280;40419;47.438;19.026;2023-03-05T05:35:52;99589.34;;;2.34;90.75
54512;BME280;40419;47.438;19.026;2023-03-05T05:38:17;99581.81;;;2.29;90.55
54512;BME280;40419;47.438;19.026;2023-03-05T05:40:47;99577.09;;;2.23;91.42
54512;BME280;40419;47.438;19.026;2023-03-05T05:43:13;99576.22;;;2.40;91.32
54512;BME280;40419;47.438;19.026;2023-03-05T05:45:46;99574.94;;;2.53;90.05
54512;BME280;40419;47.438;19.026;2023-03-05T05:48:11;99579.13;;;2.29;90.78
54512;BME280;40419;47.438;19.026;2023-03-05T05:50:39;99591.34;;;2.32;90.91
54512;BME280;40419;47.438;19.026;2023-03-05T05:53:05;99601.59;;;2.44;90.28
54512;BME280;40419;47.438;19.026;2023-03-05T05:55:30;99614.44;;;2.41;90.64
54512;BME280;40419;47.438;19.026;2023-03-05T05:57:56;99612.78;;;2.40;89.47
54512;BME280;40419;47.438;19.026;2023-03-05T06:00:24;99615.03;;;2.53;90.45
54512;BME280;40419;47.438;19.026;2023-03-05T06:02:52;99606.78;;;2.46;91.34
54512;BME280;40419;47.438;19.026;2023-03-05T06:05:18;99603.03;;;2.30;91.48
54512;BME280;40419;47.438;19.026;2023-03-05T06:07:43;99608.31;;;2.48;91.05
54512;BME280;40419;47.438;19.026;2023-03-05T06:10:09;99600.97;;;2.24;92.14
54512;BME280;40419;47.438;19.026;2023-03-05T06:12:37;99601.22;;;2.31;91.52
54512;BME280;40419;47.438;19.026;2023-03-05T06:15:03;99603.56;;;2.34;91.79
54512;BME280;40419;47.438;19.026;2023-03-05T06:17:32;99597.75;;;2.39;90.47
54512;BME280;40419;47.438;19.026;2023-03-05T06:19:58;99604.97;;;2.46;90.24
54512;BME280;40419;47.438;19.026;2023-03-05T06:22:26;99606.06;;;2.36;90.75
54512;BME280;40419;47.438;19.026;2023-03-05T06:24:51;99607.25;;;2.41;91.13
54512;BME280;40419;47.438;19.026;2023-03-05T06:27:21;99612.94;;;2.38;91.64
54512;BME280;40419;47.438;19.026;2023-03-05T06:29:51;99608.16;;;2.50;91.10
54512;BME280;40419;47.438;19.026;2023-03-05T06:32:19;99607.25;;;2.41;91.47
54512;BME280;40419;47.438;19.026;2023-03-05T06:34:47;99604.13;;;2.46;91.67
54512;BME280;40419;47.438;19.026;2023-03-05T06:37:13;99606.44;;;2.67;90.93
54512;BME280;40419;47.438;19.026;2023-03-05T06:39:41;99608.28;;;2.66;89.55
54512;BME280;40419;47.438;19.026;2023-03-05T06:42:09;99605.25;;;2.61;89.47
54512;BME280;40419;47.438;19.026;2023-03-05T06:44:40;99599.09;;;2.69;89.43
54512;BME280;40419;47.438;19.026;2023-03-05T06:47:10;99607.28;;;2.68;90.20
54512;BME280;40419;47.438;19.026;2023-03-05T06:49:37;99600.91;;;2.69;89.64
54512;BME280;40419;47.438;19.026;2023-03-05T06:52:03;99606.66;;;2.74;90.19
54512;BME280;40419;47.438;19.026;2023-03-05T06:54:34;99599.25;;;2.68;88.95
54512;BME280;40419;47.438;19.026;2023-03-05T06:56:59;99608.28;;;2.66;89.51
54512;BME280;40419;47.438;19.026;2023-03-05T06:59:25;99597.41;;;2.68;89.54
54512;BME280;40419;47.438;19.026;2023-03-05T07:01:55;99596.63;;;2.76;89.33
54512;BME280;40419;47.438;19.026;2023-03-05T07:04:21;99606.50;;;2.75;89.19
54512;BME280;40419;47.438;19.026;2023-03-05T07:06:50;99612.94;;;2.64;89.90
54512;BME280;40419;47.438;19.026;2023-03-05T07:09:21;99604.47;;;2.69;90.56
54512;BME280;40419;47.438;19.026;2023-03-05T07:11:50;99605.78;;;2.73;89.88
54512;BME280;40419;47.438;19.026;2023-03-05T07:14:18;99606.03;;;2.88;88.60
54512;BME280;40419;47.438;19.026;2023-03-05T07:16:46;99611.28;;;2.98;88.60
54512;BME280;40419;47.438;19.026;2023-03-05T07:19:17;99608.22;;;2.84;89.66
54512;BME280;40419;47.438;19.026;2023-03-05T07:21:44;99607.75;;;2.97;89.50
54512;BME280;40419;47.438;19.026;2023-03-05T07:24:12;99605.25;;;2.96;89.62
54512;BME280;40419;47.438;19.026;2023-03-05T07:26:38;99609.28;;;3.00;89.59
54512;BME280;40419;47.438;19.026;2023-03-05T07:29:06;99614.38;;;3.19;88.58
54512;BME280;40419;47.438;19.026;2023-03-05T07:31:36;99605.69;;;3.17;87.74
54512;BME280;40419;47.438;19.026;2023-03-05T07:34:05;99608.03;;;3.21;87.55
54512;BME280;40419;47.438;19.026;2023-03-05T07:36:35;99605.22;;;3.30;87.51
54512;BME280;40419;47.438;19.026;2023-03-05T07:39:02;99601.09;;;3.44;87.92
54512;BME280;40419;47.438;19.026;2023-03-05T07:41:29;99598.38;;;3.28;87.82
54512;BME280;40419;47.438;19.026;2023-03-05T07:43:57;99617.78;;;3.30;88.30
54512;BME280;40419;47.438;19.026;2023-03-05T07:46:30;99604.66;;;3.61;86.96
54512;BME280;40419;47.438;19.026;2023-03-05T07:48:56;99603.09;;;3.42;88.14
54512;BME280;40419;47.438;19.026;2023-03-05T07:51:27;99597.72;;;3.42;87.75
54512;BME280;40419;47.438;19.026;2023-03-05T07:53:54;99600.78;;;3.55;87.74
54512;BME280;40419;47.438;19.026;2023-03-05T07:56:29;99595.25;;;3.49;87.78
54512;BME280;40419;47.438;19.026;2023-03-05T07:59:09;99606.47;;;3.52;87.84
54512;BME280;40419;47.438;19.026;2023-03-05T08:01:35;99592.59;;;3.57;86.88
54512;BME280;40419;47.438;19.026;2023-03-05T08:04:04;99589.09;;;3.57;86.76
54512;BME280;40419;47.438;19.026;2023-03-05T08:06:31;99588.59;;;3.69;86.51
54512;BME280;40419;47.438;19.026;2023-03-05T08:09:01;99583.72;;;3.65;86.35
54512;BME280;40419;47.438;19.026;2023-03-05T08:11:28;99584.75;;;3.72;86.76
54512;BME280;40419;47.438;19.026;2023-03-05T08:13:58;99592.78;;;3.80;85.65
54512;BME280;40419;47.438;19.026;2023-03-05T08:16:25;99581.75;;;3.67;86.56
54512;BME280;40419;47.438;19.026;2023-03-05T08:18:58;99587.91;;;3.59;87.57
54512;BME280;40419;47.438;19.026;2023-03-05T08:21:35;99587.72;;;3.61;86.63
54512;BME280;40419;47.438;19.026;2023-03-05T08:24:06;99594.94;;;3.52;87.43
54512;BME280;40419;47.438;19.026;2023-03-05T08:26:37;99595.16;;;3.92;86.17
54512;BME280;40419;47.438;19.026;2023-03-05T08:29:07;99604.53;;;3.87;85.20
54512;BME280;40419;47.438;19.026;2023-03-05T08:31:34;99594.31;;;4.07;85.43
54512;BME280;40419;47.438;19.026;2023-03-05T08:34:06;99600.34;;;3.93;85.13
54512;BME280;40419;47.438;19.026;2023-03-05T08:36:36;99594.16;;;3.93;85.58
54512;BME280;40419;47.438;19.026;2023-03-05T08:39:04;99592.13;;;4.03;85.93
54512;BME280;40419;47.438;19.026;2023-03-05T08:41:31;99587.63;;;4.20;84.18
54512;BME280;40419;47.438;19.026;2023-03-05T08:43:59;99593.16;;;4.26;85.91
54512;BME280;40419;47.438;19.026;2023-03-05T08:46:25;99592.13;;;4.36;85.08
54512;BME280;40419;47.438;19.026;2023-03-05T08:48:53;99595.47;;;4.30;84.37
54512;BME280;40419;47.438;19.026;2023-03-05T08:51:21;99599.16;;;4.12;85.72
54512;BME280;40419;47.438;19.026;2023-03-05T08:53:49;99593.28;;;4.33;84.91
54512;BME280;40419;47.438;19.026;2023-03-05T08:56:17;99602.00;;;4.27;84.52
54512;BME280;40419;47.438;19.026;2023-03-05T08:58:45;99576.72;;;3.97;85.19
54512;BME280;40419;47.438;19.026;2023-03-05T09:01:12;99578.41;;;3.98;84.32
54512;BME280;40419;47.438;19.026;2023-03-05T09:03:40;99575.22;;;4.02;85.70
54512;BME280;40419;47.438;19.026;2023-03-05T09:06:10;99582.44;;;4.18;85.52
54512;BME280;40419;47.438;19.026;2023-03-05T09:08:37;99577.72;;;4.12;84.97
54512;BME280;40419;47.438;19.026;2023-03-05T09:11:08;99577.03;;;4.35;86.16
54512;BME280;40419;47.438;19.026;2023-03-05T09:13:36;99577.69;;;4.45;84.36
54512;BME280;40419;47.438;19.026;2023-03-05T09:16:05;99584.25;;;4.51;84.01
54512;BME280;40419;47.438;19.026;2023-03-05T09:18:34;99582.72;;;4.56;84.44
54512;BME280;40419;47.438;19.026;2023-03-05T09:21:04;99572.13;;;4.71;84.08
54512;BME280;40419;47.438;19.026;2023-03-05T09:23:33;99578.28;;;4.80;82.68
54512;BME280;40419;47.438;19.026;2023-03-05T09:26:03;99578.94;;;4.90;82.69
54512;BME280;40419;47.438;19.026;2023-03-05T09:28:29;99574.25;;;4.84;81.95
54512;BME280;40419;47.438;19.026;2023-03-05T09:31:00;99566.09;;;4.69;82.69
54512;BME280;40419;47.438;19.026;2023-03-05T09:33:29;99569.25;;;4.81;82.56
54512;BME280;40419;47.438;19.026;2023-03-05T09:35:55;99572.25;;;4.86;82.37
54512;BME280;40419;47.438;19.026;2023-03-05T09:38:25;99566.50;;;4.97;83.14
54512;BME280;40419;47.438;19.026;2023-03-05T09:40:57;99566.38;;;4.83;83.10
54512;BME280;40419;47.438;19.026;2023-03-05T09:52:04;99558.94;;;5.01;81.77
54512;BME280;40419;47.438;19.026;2023-03-05T09:54:42;99566.81;;;5.03;81.98
54512;BME280;40419;47.438;19.026;2023-03-05T09:57:16;99560.91;;;5.15;82.72
54512;BME280;40419;47.438;19.026;2023-03-05T09:59:55;99559.38;;;5.13;80.15
54512;BME280;40419;47.438;19.026;2023-03-05T10:02:28;99537.38;;;5.18;81.46
54512;BME280;40419;47.438;19.026;2023-03-05T10:05:17;99540.34;;;5.31;79.77
54512;BME280;40419;47.438;19.026;2023-03-05T10:07:58;99537.81;;;5.38;78.58
54512;BME280;40419;47.438;19.026;2023-03-05T10:13:13;99547.31;;;5.17;80.25
54512;BME280;40419;47.438;19.026;2023-03-05T10:15:53;99537.13;;;5.36;79.46
54512;BME280;40419;47.438;19.026;2023-03-05T10:18:40;99533.63;;;5.35;78.51
54512;BME280;40419;47.438;19.026;2023-03-05T10:21:23;99540.59;;;5.44;77.51
54512;BME280;40419;47.438;19.026;2023-03-05T10:38:05;99517.88;;;5.24;76.89
54512;BME280;40419;47.438;19.026;2023-03-05T10:40:43;99509.00;;;5.23;76.26
54512;BME280;40419;47.438;19.026;2023-03-05T10:43:16;99508.97;;;5.31;76.66
54512;BME280;40419;47.438;19.026;2023-03-05T10:45:49;99503.63;;;5.31;74.58
54512;BME280;40419;47.438;19.026;2023-03-05T10:48:38;99505.69;;;5.67;75.47
54512;BME280;40419;47.438;19.026;2023-03-05T10:54:02;99507.50;;;5.90;72.45
54512;BME280;40419;47.438;19.026;2023-03-05T10:56:28;99516.13;;;5.85;73.05
54512;BME280;40419;47.438;19.026;2023-03-05T10:58:59;99503.22;;;5.81;72.51
54512;BME280;40419;47.438;19.026;2023-03-05T11:01:27;99504.00;;;5.90;71.81
54512;BME280;40419;47.438;19.026;2023-03-05T11:04:01;99507.44;;;5.60;73.07
54512;BME280;40419;47.438;19.026;2023-03-05T11:06:41;99497.44;;;5.69;72.11
54512;BME280;40419;47.438;19.026;2023-03-05T11:14:30;99482.66;;;5.27;69.58
54512;BME280;40419;47.438;19.026;2023-03-05T11:16:59;99482.41;;;5.37;69.58
54512;BME280;40419;47.438;19.026;2023-03-05T11:19:30;99477.50;;;5.17;69.64
54512;BME280;40419;47.438;19.026;2023-03-05T11:22:17;99475.81;;;5.24;70.41
54512;BME280;40419;47.438;19.026;2023-03-05T11:25:15;99480.38;;;5.39;69.92
54512;BME280;40419;47.438;19.026;2023-03-05T11:27:53;99478.00;;;5.44;70.15
54512;BME280;40419;47.438;19.026;2023-03-05T11:30:28;99474.44;;;5.52;70.73
54512;BME280;40419;47.438;19.026;2023-03-05T11:33:28;99467.03;;;5.54;71.08
54512;BME280;40419;47.438;19.026;2023-03-05T11:36:24;99463.06;;;5.64;71.23
54512;BME280;40419;47.438;19.026;2023-03-05T11:41:26;99453.59;;;5.77;68.90
54512;BME280;40419;47.438;19.026;2023-03-05T11:43:57;99451.41;;;5.57;67.25
54512;BME280;40419;47.438;19.026;2023-03-05T11:46:26;99447.69;;;5.96;66.71
54512;BME280;40419;47.438;19.026;2023-03-05T11:48:57;99438.66;;;6.12;64.25
54512;BME280;40419;47.438;19.026;2023-03-05T11:51:35;99443.03;;;6.28;63.52
54512;BME280;40419;47.438;19.026;2023-03-05T11:54:07;99443.09;;;6.20;63.50
54512;BME280;40419;47.438;19.026;2023-03-05T11:56:35;99445.06;;;6.41;62.96
54512;BME280;40419;47.438;19.026;2023-03-05T12:01:51;99427.91;;;6.57;63.90
54512;BME280;40419;47.438;19.026;2023-03-05T12:04:21;99432.81;;;6.38;65.31
54512;BME280;40419;47.438;19.026;2023-03-05T12:06:55;99443.22;;;6.42;65.50
54512;BME280;40419;47.438;19.026;2023-03-05T12:09:45;99422.97;;;6.46;64.68
54512;BME280;40419;47.438;19.026;2023-03-05T12:13:14;99415.63;;;6.69;65.49
54512;BME280;40419;47.438;19.026;2023-03-05T12:21:01;99396.09;;;6.46;63.85
54512;BME280;40419;47.438;19.026;2023-03-05T12:23:45;99394.91;;;6.33;65.34
54512;BME280;40419;47.438;19.026;2023-03-05T12:32:00;99403.63;;;6.20;64.50
54512;BME280;40419;47.438;19.026;2023-03-05T12:37:12;99395.66;;;6.12;63.12
54512;BME280;40419;47.438;19.026;2023-03-05T12:47:47;99382.19;;;6.12;61.02
54512;BME280;40419;47.438;19.026;2023-03-05T12:56:17;99364.69;;;6.31;60.87
54512;BME280;40419;47.438;19.026;2023-03-05T12:58:50;99366.19;;;6.19;62.35
54512;BME280;40419;47.438;19.026;2023-03-05T13:01:33;99371.38;;;6.20;62.22
54512;BME280;40419;47.438;19.026;2023-03-05T13:04:05;99363.47;;;5.89;63.56
54512;BME280;40419;47.438;19.026;2023-03-05T13:06:38;99359.69;;;5.98;64.41
54512;BME280;40419;47.438;19.026;2023-03-05T13:11:36;99366.78;;;5.91;62.50
54512;BME280;40419;47.438;19.026;2023-03-05T13:14:03;99354.91;;;5.85;62.62
54512;BME280;40419;47.438;19.026;2023-03-05T13:16:36;99358.59;;;5.55;63.80
54512;BME280;40419;47.438;19.026;2023-03-05T13:19:14;99364.97;;;5.54;61.82
54512;BME280;40419;47.438;19.026;2023-03-05T13:21:43;99365.47;;;5.57;61.33
54512;BME280;40419;47.438;19.026;2023-03-05T13:24:16;99369.03;;;5.49;62.09
54512;BME280;40419;47.438;19.026;2023-03-05T13:26:42;99353.28;;;5.46;62.46
54512;BME280;40419;47.438;19.026;2023-03-05T13:29:15;99354.41;;;5.52;62.63
54512;BME280;40419;47.438;19.026;2023-03-05T13:32:01;99361.38;;;5.61;62.91
54512;BME280;40419;47.438;19.026;2023-03-05T13:34:34;99353.81;;;5.65;63.58
54512;BME280;40419;47.438;19.026;2023-03-05T13:37:15;99358.41;;;5.56;62.73
54512;BME280;40419;47.438;19.026;2023-03-05T13:40:01;99351.91;;;5.50;62.55
54512;BME280;40419;47.438;19.026;2023-03-05T13:42:34;99349.44;;;5.64;61.72
54512;BME280;40419;47.438;19.026;2023-03-05T13:45:16;99348.31;;;5.58;60.98
54512;BME280;40419;47.438;19.026;2023-03-05T13:47:55;99355.81;;;5.63;60.79
54512;BME280;40419;47.438;19.026;2023-03-05T13:52:53;99344.16;;;5.56;61.47
54512;BME280;40419;47.438;19.026;2023-03-05T13:55:21;99341.38;;;5.64;60.97
54512;BME280;40419;47.438;19.026;2023-03-05T13:57:49;99347.22;;;5.67;62.51
54512;BME280;40419;47.438;19.026;2023-03-05T14:02:56;99333.88;;;5.59;62.10
54512;BME280;40419;47.438;19.026;2023-03-05T14:05:28;99338.97;;;5.54;61.75
54512;BME280;40419;47.438;19.026;2023-03-05T14:07:56;99338.03;;;5.47;62.17
54512;BME280;40419;47.438;19.026;2023-03-05T14:10:38;99317.38;;;5.47;61.67
54512;BME280;40419;47.438;19.026;2023-03-05T14:13:25;99317.28;;;5.41;62.17
54512;BME280;40419;47.438;19.026;2023-03-05T14:16:13;99324.31;;;5.42;62.99
54512;BME280;40419;47.438;19.026;2023-03-05T14:18:54;99323.47;;;5.41;63.60
54512;BME280;40419;47.438;19.026;2023-03-05T14:21:23;99336.50;;;5.29;63.35
54512;BME280;40419;47.438;19.026;2023-03-05T14:23:52;99330.53;;;5.19;63.82
54512;BME280;40419;47.438;19.026;2023-03-05T14:26:32;99314.81;;;5.16;62.49
54512;BME280;40419;47.438;19.026;2023-03-05T14:31:32;99312.78;;;5.18;64.00
54512;BME280;40419;47.438;19.026;2023-03-05T14:34:03;99313.81;;;5.17;65.03
54512;BME280;40419;47.438;19.026;2023-03-05T14:36:29;99314.16;;;5.14;63.81
54512;BME280;40419;47.438;19.026;2023-03-05T14:38:58;99309.16;;;5.11;64.30
54512;BME280;40419;47.438;19.026;2023-03-05T14:44:09;99312.97;;;5.17;65.23